Time;durP1;ratioP1;P1;durP2;ratioP2;P2;SDS_P1;SDS_P2;PMS_P1;PMS_P2;Temp;Humidity;BMP_temperature;BMP_pressure;BME280_temperature;BME280_humidity;BME280_pressure;Samples;Min_cycle;Max_cycle;Signal;HPM_P1;HPM_P2
2022/01/01 00:01:34;;;;;;;96.40;39.88;;;11.30;99.90;;;;;;4800836;29;20164;-86
2022/01/01 00:04:00;;;;;;;83.80;38.10;;;11.30;99.90;;;;;;4798001;29;20049;-85
2022/01/01 00:06:26;;;;;;;84.55;36.63;;;11.30;99.90;;;;;;4815046;29;20046;-87
2022/01/01 00:08:52;;;;;;;96.00;37.78;;;11.30;99.90;;;;;;4798605;29;20056;-84
2022/01/01 00:11:18;;;;;;;86.72;35.72;;;11.30;99.90;;;;;;4816881;29;20058;-86
2022/01/01 00:13:44;;;;;;;85.20;34.75;;;11.30;99.90;;;;;;4784173;29;20052;-85
2022/01/01 00:16:10;;;;;;;84.07;35.40;;;11.30;99.90;;;;;;4819706;29;20120;-84
2022/01/01 00:18:36;;;;;;;99.35;34.88;;;11.30;99.90;;;;;;4801197;29;20046;-85
2022/01/01 00:21:03;;;;;;;93.90;34.63;;;11.30;99.90;;;;;;4813611;29;20126;-83
2022/01/01 00:23:29;;;;;;;82.70;32.47;;;11.30;99.90;;;;;;4809578;29;20042;-86
2022/01/01 00:25:55;;;;;;;92.35;32.55;;;11.30;99.90;;;;;;4783277;29;20097;-84
2022/01/01 00:28:21;;;;;;;81.93;29.67;;;11.30;99.90;;;;;;4815565;29;20128;-83
2022/01/01 00:30:46;;;;;;;79.70;25.42;;;11.30;99.90;;;;;;4817659;29;20242;-85
2022/01/01 00:33:12;;;;;;;69.03;25.92;;;11.30;99.90;;;;;;4785592;29;20101;-84
2022/01/01 00:35:40;;;;;;;79.78;25.20;;;11.30;99.90;;;;;;4797909;29;20125;-86
2022/01/01 00:38:06;;;;;;;69.97;24.67;;;11.30;99.90;;;;;;4787234;29;20042;-84
2022/01/01 00:40:32;;;;;;;71.30;25.00;;;11.30;99.90;;;;;;4846792;29;20049;-84
2022/01/01 00:43:00;;;;;;;74.90;25.23;;;11.30;99.90;;;;;;4783803;29;20097;-84
2022/01/01 00:45:25;;;;;;;72.40;25.67;;;11.30;99.90;;;;;;4785724;29;20049;-85
2022/01/01 00:47:51;;;;;;;80.90;25.60;;;11.30;99.90;;;;;;4801230;29;20670;-86
2022/01/01 00:50:20;;;;;;;75.65;26.15;;;11.30;99.90;;;;;;4815865;29;20243;-84
2022/01/01 00:52:46;;;;;;;76.22;24.10;;;11.30;99.90;;;;;;4799788;29;20045;-83
2022/01/01 00:55:12;;;;;;;81.78;25.55;;;11.40;99.90;;;;;;4793446;29;20142;-84
2022/01/01 00:57:38;;;;;;;78.70;25.25;;;11.30;99.90;;;;;;4782506;29;20141;-86
2022/01/01 01:00:05;;;;;;;75.68;25.23;;;11.30;99.90;;;;;;4801813;29;20604;-85
2022/01/01 01:02:31;;;;;;;79.43;25.67;;;11.30;99.90;;;;;;4847375;29;20045;-86
2022/01/01 01:04:58;;;;;;;74.15;25.75;;;11.30;99.90;;;;;;4799436;29;20042;-86
2022/01/01 01:07:24;;;;;;;81.55;26.20;;;11.30;99.90;;;;;;4799286;29;20054;-85
2022/01/01 01:09:50;;;;;;;78.35;27.98;;;11.30;99.90;;;;;;4805720;29;20054;-83
2022/01/01 01:12:22;;;;;;;74.55;27.30;;;11.30;99.90;;;;;;4817910;29;20034;-85
2022/01/01 01:14:48;;;;;;;70.03;26.73;;;11.30;99.90;;;;;;4802423;29;20091;-85
2022/01/01 01:17:13;;;;;;;76.15;26.95;;;11.30;99.90;;;;;;4798155;29;20344;-84
2022/01/01 01:19:39;;;;;;;81.78;27.85;;;11.30;99.90;;;;;;4780501;29;20043;-81
2022/01/01 01:22:05;;;;;;;71.88;27.25;;;11.30;99.90;;;;;;4798694;29;21627;-84
2022/01/01 01:24:33;;;;;;;83.40;29.27;;;11.30;99.90;;;;;;4846135;29;20046;-82
2022/01/01 01:27:03;;;;;;;82.10;28.90;;;11.30;99.90;;;;;;4809668;29;20127;-84
2022/01/01 01:29:31;;;;;;;85.78;29.25;;;11.30;99.90;;;;;;4804317;29;20049;-82
2022/01/01 01:31:57;;;;;;;82.60;29.25;;;11.30;99.90;;;;;;4827710;29;20050;-81
2022/01/01 01:34:23;;;;;;;82.60;30.02;;;11.30;99.90;;;;;;4782166;29;20292;-84
2022/01/01 01:36:48;;;;;;;80.75;29.15;;;11.30;99.90;;;;;;4797219;29;20045;-83
2022/01/01 01:39:14;;;;;;;84.55;31.70;;;11.30;99.90;;;;;;4800084;29;20052;-81
2022/01/01 01:41:42;;;;;;;85.18;34.40;;;11.30;99.90;;;;;;4783732;29;20251;-82
2022/01/01 01:44:30;;;;;;;94.80;36.55;;;11.20;99.90;;;;;;4785074;29;20566;-82
2022/01/01 01:46:59;;;;;;;102.90;41.05;;;11.20;99.90;;;;;;4816638;29;20038;-83
2022/01/01 01:49:25;;;;;;;100.63;43.47;;;11.20;99.90;;;;;;4811122;29;20054;-84
2022/01/01 01:51:52;;;;;;;109.43;47.40;;;11.20;99.90;;;;;;4820139;29;20042;-84
2022/01/01 01:54:18;;;;;;;105.05;48.47;;;11.20;99.90;;;;;;4801532;29;20077;-83
2022/01/01 01:56:45;;;;;;;106.97;48.80;;;11.20;99.90;;;;;;4820716;29;20046;-84
2022/01/01 01:59:12;;;;;;;105.20;49.80;;;11.20;99.90;;;;;;4800974;29;20046;-81
2022/01/01 02:01:37;;;;;;;122.43;48.58;;;11.10;99.90;;;;;;4800127;29;20046;-81
2022/01/01 02:04:03;;;;;;;116.22;48.45;;;11.10;99.90;;;;;;4782297;29;20058;-81
2022/01/01 02:06:29;;;;;;;112.60;50.25;;;11.10;99.90;;;;;;4792694;29;20050;-81
2022/01/01 02:08:55;;;;;;;118.63;51.97;;;11.10;99.90;;;;;;4782619;29;20046;-85
2022/01/01 02:11:22;;;;;;;114.57;51.55;;;11.10;99.90;;;;;;4798825;29;20053;-83
2022/01/01 02:18:53;;;;;;;115.18;52.25;;;11.10;99.90;;;;;;4841663;29;20064;-82
2022/01/01 02:21:20;;;;;;;115.10;52.85;;;11.00;99.90;;;;;;4826368;29;20185;-84
2022/01/01 02:23:47;;;;;;;125.07;52.60;;;11.00;99.90;;;;;;4822166;29;20121;-84
2022/01/01 02:26:16;;;;;;;123.80;53.22;;;10.90;99.90;;;;;;4800745;29;20038;-84
2022/01/01 02:28:44;;;;;;;124.18;53.28;;;10.90;99.90;;;;;;4826416;29;20132;-83
2022/01/01 02:31:10;;;;;;;121.90;51.67;;;10.90;99.90;;;;;;4830259;29;20095;-84
2022/01/01 02:33:37;;;;;;;116.40;51.42;;;10.90;99.90;;;;;;4825741;29;20533;-81
2022/01/01 02:36:05;;;;;;;118.25;51.72;;;10.90;99.90;;;;;;4815302;29;20042;-83
2022/01/01 02:38:34;;;;;;;124.30;50.50;;;10.80;99.90;;;;;;4814946;29;20293;-82
2022/01/01 02:41:00;;;;;;;126.65;50.22;;;10.80;99.90;;;;;;4810560;29;20038;-82
2022/01/01 02:43:26;;;;;;;116.38;49.40;;;10.80;99.90;;;;;;4814386;29;20090;-84
2022/01/01 02:45:52;;;;;;;119.32;50.78;;;10.80;99.90;;;;;;4813891;29;20049;-81
2022/01/01 02:48:19;;;;;;;108.47;49.80;;;10.80;99.90;;;;;;4819558;29;20050;-82
2022/01/01 02:50:44;;;;;;;126.28;51.47;;;10.80;99.90;;;;;;4823049;29;20466;-80
2022/01/01 02:53:17;;;;;;;108.20;50.80;;;10.80;99.90;;;;;;4803698;29;20046;-84
2022/01/01 02:55:43;;;;;;;117.80;52.47;;;10.90;99.90;;;;;;4823672;29;20060;-84
2022/01/01 02:58:13;;;;;;;127.53;51.58;;;10.90;99.90;;;;;;4823605;29;20050;-81
2022/01/01 03:00:40;;;;;;;114.68;51.88;;;10.90;99.90;;;;;;4810515;29;20150;-84
2022/01/01 03:03:09;;;;;;;120.65;53.40;;;11.00;99.90;;;;;;4800585;29;20110;-85
2022/01/01 03:05:36;;;;;;;120.47;53.65;;;11.00;99.90;;;;;;4782381;29;20038;-82
2022/01/01 03:08:02;;;;;;;126.85;53.35;;;11.00;99.90;;;;;;4812001;29;20046;-83
2022/01/01 03:10:27;;;;;;;131.20;52.70;;;11.00;99.90;;;;;;4816713;29;20139;-84
2022/01/01 03:12:53;;;;;;;114.70;52.53;;;11.10;99.90;;;;;;4798561;29;20050;-82
2022/01/01 03:15:19;;;;;;;125.45;51.83;;;11.00;99.90;;;;;;4798965;29;20096;-82
2022/01/01 03:17:45;;;;;;;120.65;53.28;;;11.00;99.90;;;;;;4796881;29;20601;-82
2022/01/01 03:20:11;;;;;;;118.28;51.63;;;11.00;99.90;;;;;;4798205;29;20055;-84
2022/01/01 03:22:42;;;;;;;111.00;52.80;;;11.00;99.90;;;;;;4780965;29;20041;-81
2022/01/01 03:25:16;;;;;;;130.63;54.08;;;11.00;99.90;;;;;;4812786;29;20072;-82
2022/01/01 03:27:42;;;;;;;122.15;54.42;;;11.00;99.90;;;;;;4814583;29;20065;-83
2022/01/01 03:30:08;;;;;;;128.73;57.65;;;11.00;99.90;;;;;;4801522;29;20065;-82
2022/01/01 03:32:33;;;;;;;122.65;58.47;;;11.00;99.90;;;;;;4814160;29;20046;-82
2022/01/01 03:34:59;;;;;;;129.57;59.65;;;11.00;99.90;;;;;;4812993;29;20048;-83
2022/01/01 03:37:25;;;;;;;137.68;62.10;;;11.00;99.90;;;;;;4812309;29;20034;-83
2022/01/01 03:39:51;;;;;;;140.98;62.40;;;11.00;99.90;;;;;;4795849;29;20042;-81
2022/01/01 03:42:16;;;;;;;128.18;65.18;;;11.10;99.90;;;;;;4809968;29;20161;-82
2022/01/01 03:44:42;;;;;;;143.25;65.55;;;11.00;99.90;;;;;;4813337;29;20049;-82
2022/01/01 03:47:09;;;;;;;142.63;68.00;;;11.00;99.90;;;;;;4813090;29;20087;-85
2022/01/01 03:49:39;;;;;;;155.20;71.22;;;11.10;99.90;;;;;;4785510;29;20044;-82
2022/01/01 03:52:06;;;;;;;154.10;70.22;;;11.00;99.90;;;;;;4811491;29;20254;-82
2022/01/01 03:54:32;;;;;;;141.32;68.40;;;11.00;99.90;;;;;;4811392;29;20546;-83
2022/01/01 03:56:59;;;;;;;157.27;71.15;;;11.00;99.90;;;;;;4815229;29;20042;-81
2022/01/01 03:59:25;;;;;;;153.75;72.63;;;11.10;99.90;;;;;;4824022;29;20145;-83
2022/01/01 04:01:51;;;;;;;159.73;76.50;;;11.00;99.90;;;;;;4818269;29;20121;-82
2022/01/01 04:04:17;;;;;;;153.98;75.53;;;11.00;99.90;;;;;;4815953;29;20042;-84
2022/01/01 04:06:46;;;;;;;165.18;78.35;;;11.00;99.90;;;;;;4815401;29;20501;-84
2022/01/01 04:09:14;;;;;;;167.05;78.00;;;11.00;99.90;;;;;;4823500;29;20259;-84
2022/01/01 04:11:47;;;;;;;160.80;80.28;;;11.00;99.90;;;;;;4797155;29;20043;-83
2022/01/01 04:14:15;;;;;;;161.73;80.13;;;11.00;99.90;;;;;;4797587;29;20157;-82
2022/01/01 04:16:42;;;;;;;168.65;82.32;;;11.00;99.90;;;;;;4814993;29;20044;-85
2022/01/01 04:19:08;;;;;;;165.75;83.68;;;11.00;99.90;;;;;;4799920;29;20042;-83
2022/01/01 04:21:34;;;;;;;168.45;82.63;;;11.00;99.90;;;;;;4813820;29;20129;-84
2022/01/01 04:24:06;;;;;;;175.10;83.60;;;11.00;99.90;;;;;;4813045;29;20047;-83
2022/01/01 04:26:33;;;;;;;179.68;83.97;;;11.00;99.90;;;;;;4811602;29;20049;-84
2022/01/01 04:28:59;;;;;;;181.82;83.05;;;11.00;99.90;;;;;;4816032;29;20052;-81
2022/01/01 04:31:30;;;;;;;169.63;83.70;;;10.90;99.90;;;;;;4814799;29;20045;-81
2022/01/01 04:33:58;;;;;;;184.30;84.20;;;11.00;99.90;;;;;;4810497;29;20050;-84
2022/01/01 04:36:33;;;;;;;160.90;80.68;;;11.00;99.90;;;;;;4818770;29;20037;-84
2022/01/01 04:38:58;;;;;;;163.40;80.93;;;10.90;99.90;;;;;;4845987;29;20050;-82
2022/01/01 04:41:26;;;;;;;172.30;83.28;;;11.00;99.90;;;;;;4805551;29;20118;-82
2022/01/01 04:43:52;;;;;;;168.82;81.03;;;10.90;99.90;;;;;;4822085;29;20038;-83
2022/01/01 04:46:18;;;;;;;183.45;80.90;;;11.00;99.90;;;;;;4799611;29;20469;-83
2022/01/01 04:48:44;;;;;;;166.88;80.75;;;11.00;99.90;;;;;;4818398;29;20064;-84
2022/01/01 04:51:11;;;;;;;165.52;79.53;;;11.00;99.90;;;;;;4801793;29;20073;-84
2022/01/01 04:53:40;;;;;;;167.02;78.93;;;11.00;99.90;;;;;;4787871;29;20346;-83
2022/01/01 04:56:07;;;;;;;160.25;79.00;;;11.00;99.90;;;;;;4815308;29;20112;-83
2022/01/01 04:58:34;;;;;;;162.77;81.18;;;11.00;99.90;;;;;;4816845;29;20529;-83
2022/01/01 05:01:00;;;;;;;179.95;80.60;;;11.00;99.90;;;;;;4816716;29;20159;-83
2022/01/01 05:03:25;;;;;;;169.15;79.07;;;11.00;99.90;;;;;;4803250;29;20581;-84
2022/01/01 05:05:51;;;;;;;167.35;78.80;;;11.00;99.90;;;;;;4814039;29;20585;-84
2022/01/01 05:08:17;;;;;;;166.57;77.28;;;11.00;99.90;;;;;;4795116;29;20409;-83
2022/01/01 05:10:43;;;;;;;172.25;80.07;;;11.00;99.90;;;;;;4820708;29;20060;-85
2022/01/01 05:13:08;;;;;;;156.10;77.88;;;11.00;99.90;;;;;;4802835;29;20506;-84
2022/01/01 05:15:37;;;;;;;168.07;79.70;;;11.00;99.90;;;;;;4795340;29;20073;-82
2022/01/01 05:18:03;;;;;;;168.63;79.03;;;11.00;99.90;;;;;;4792967;29;20268;-84
2022/01/01 05:20:29;;;;;;;148.40;77.38;;;11.00;99.90;;;;;;4788963;29;20549;-84
2022/01/01 05:22:55;;;;;;;157.05;75.38;;;11.00;99.90;;;;;;4787597;29;20054;-84
2022/01/01 05:25:21;;;;;;;158.63;75.32;;;11.10;99.90;;;;;;4785919;29;20329;-82
2022/01/01 05:27:47;;;;;;;162.30;75.05;;;11.00;99.90;;;;;;4796377;29;20110;-83
2022/01/01 05:30:12;;;;;;;170.63;76.47;;;11.00;99.90;;;;;;4814373;29;20520;-85
2022/01/01 05:32:38;;;;;;;162.77;73.25;;;11.10;99.90;;;;;;4818091;29;20507;-84
2022/01/01 05:35:05;;;;;;;158.10;75.57;;;11.10;99.90;;;;;;4803255;29;20493;-84
2022/01/01 05:37:30;;;;;;;162.18;74.88;;;11.10;99.90;;;;;;4797142;29;20220;-83
2022/01/01 05:39:59;;;;;;;168.02;73.32;;;11.10;99.90;;;;;;4802885;29;20132;-84
2022/01/01 05:42:27;;;;;;;166.88;71.57;;;11.10;99.90;;;;;;4818343;29;20595;-82
2022/01/01 05:44:53;;;;;;;167.38;71.43;;;11.20;99.90;;;;;;4803763;29;20490;-83
2022/01/01 05:47:19;;;;;;;167.90;71.95;;;11.20;99.90;;;;;;4830725;29;20049;-81
2022/01/01 05:49:48;;;;;;;151.75;69.78;;;11.20;99.90;;;;;;4799477;29;20081;-84
2022/01/01 05:52:19;;;;;;;160.13;68.25;;;11.20;99.90;;;;;;4821328;29;20046;-86
2022/01/01 05:54:59;;;;;;;140.57;62.65;;;11.20;99.90;;;;;;4792201;29;20084;-83
2022/01/01 05:57:25;;;;;;;143.48;60.85;;;11.10;99.90;;;;;;4786653;29;20141;-81
2022/01/01 05:59:50;;;;;;;136.55;63.63;;;11.20;99.90;;;;;;4811523;29;20049;-83
2022/01/01 06:02:16;;;;;;;144.05;61.95;;;11.20;99.90;;;;;;4791487;29;20458;-82
2022/01/01 06:04:42;;;;;;;137.63;57.60;;;11.20;99.90;;;;;;4788658;29;20042;-82
2022/01/01 06:07:08;;;;;;;145.82;60.92;;;11.20;99.90;;;;;;4760282;29;20046;-81
2022/01/01 06:09:34;;;;;;;138.75;60.60;;;11.10;99.90;;;;;;4793891;29;20097;-84
2022/01/01 06:11:59;;;;;;;157.35;59.85;;;11.10;99.90;;;;;;4816666;29;20364;-82
2022/01/01 06:14:25;;;;;;;139.52;54.00;;;11.10;99.90;;;;;;4801422;29;20041;-83
2022/01/01 06:16:51;;;;;;;149.20;58.80;;;11.10;99.90;;;;;;4817325;29;20510;-83
2022/01/01 06:19:17;;;;;;;148.55;53.28;;;11.10;99.90;;;;;;4800832;29;20414;-85
2022/01/01 06:21:43;;;;;;;134.20;48.50;;;11.10;99.90;;;;;;4814436;29;20034;-82
2022/01/01 06:24:08;;;;;;;122.10;47.30;;;11.10;99.90;;;;;;4813498;29;20134;-83
2022/01/01 06:26:34;;;;;;;127.18;46.17;;;11.10;99.90;;;;;;4802049;29;20513;-84
2022/01/01 06:29:01;;;;;;;147.15;47.05;;;11.10;99.90;;;;;;4800663;29;20271;-84
2022/01/01 06:31:28;;;;;;;130.68;44.35;;;11.10;99.90;;;;;;4813625;29;20041;-83
2022/01/01 06:33:54;;;;;;;117.78;42.88;;;11.10;99.90;;;;;;4796906;29;20050;-82
2022/01/01 06:36:20;;;;;;;141.50;45.92;;;11.10;99.90;;;;;;4816646;29;20065;-84
2022/01/01 06:38:46;;;;;;;126.75;43.97;;;11.10;99.90;;;;;;4799855;29;20050;-82
2022/01/01 06:41:13;;;;;;;130.20;43.08;;;11.10;99.90;;;;;;4810748;29;20045;-82
2022/01/01 06:43:40;;;;;;;135.57;42.67;;;11.10;99.90;;;;;;4832390;29;20053;-83
2022/01/01 06:46:28;;;;;;;124.40;42.78;;;11.10;99.90;;;;;;4815766;29;20062;-82
2022/01/01 06:48:54;;;;;;;121.15;41.90;;;11.20;99.90;;;;;;4803944;29;20081;-83
2022/01/01 06:51:20;;;;;;;122.90;42.45;;;11.10;99.90;;;;;;4813184;29;20045;-82
2022/01/01 06:53:46;;;;;;;115.53;40.30;;;11.20;99.90;;;;;;4819018;29;20093;-83
2022/01/01 06:56:14;;;;;;;121.15;40.88;;;11.20;99.90;;;;;;4798612;29;20124;-85
2022/01/01 06:58:40;;;;;;;125.30;40.40;;;11.10;99.90;;;;;;4812562;29;20141;-84
2022/01/01 07:01:13;;;;;;;127.68;39.92;;;11.20;99.90;;;;;;4795880;29;20508;-82
2022/01/01 07:03:44;;;;;;;116.60;40.35;;;11.20;99.90;;;;;;4799919;29;20038;-83
2022/01/01 07:06:12;;;;;;;115.25;39.30;;;11.20;99.90;;;;;;4783017;29;20457;-82
2022/01/01 07:08:38;;;;;;;124.50;40.03;;;11.20;99.90;;;;;;4812849;29;20423;-82
2022/01/01 07:11:07;;;;;;;121.32;38.90;;;11.20;99.90;;;;;;4814065;29;20407;-81
2022/01/01 07:13:39;;;;;;;113.55;37.60;;;11.20;99.90;;;;;;4812104;29;20486;-83
2022/01/01 07:16:12;;;;;;;111.75;38.72;;;11.30;99.90;;;;;;4812191;29;20061;-83
2022/01/01 07:18:37;;;;;;;115.53;38.95;;;11.30;99.90;;;;;;4808882;29;20038;-83
2022/01/01 07:21:03;;;;;;;120.22;37.92;;;11.30;99.90;;;;;;4813462;29;20042;-82
2022/01/01 07:23:32;;;;;;;123.85;40.67;;;11.30;99.90;;;;;;4784086;29;20441;-81
2022/01/01 07:25:57;;;;;;;117.50;39.13;;;11.30;99.90;;;;;;4808150;29;20133;-83
2022/01/01 07:28:47;;;;;;;124.65;39.10;;;11.30;99.90;;;;;;4820375;29;20510;-83
2022/01/01 07:31:15;;;;;;;121.32;39.70;;;11.40;99.90;;;;;;4825701;29;20133;-83
2022/01/01 07:33:55;;;;;;;112.18;39.08;;;11.40;99.90;;;;;;4799157;29;20082;-84
2022/01/01 07:36:21;;;;;;;128.52;39.63;;;11.40;99.90;;;;;;4798673;29;20170;-83
2022/01/01 07:39:19;;;;;;;119.20;38.53;;;11.40;99.90;;;;;;4814689;29;20041;-83
2022/01/01 07:45:05;;;;;;;103.10;36.53;;;11.40;99.90;;;;;;4772483;29;20490;-84
2022/01/01 07:47:39;;;;;;;95.25;35.38;;;11.40;99.90;;;;;;4812466;29;20118;-83
2022/01/01 07:50:09;;;;;;;98.55;36.17;;;11.40;99.90;;;;;;4800189;29;20111;-83
2022/01/01 07:52:42;;;;;;;93.85;35.78;;;11.50;99.90;;;;;;4829575;29;20037;-84
2022/01/01 07:55:14;;;;;;;90.63;33.65;;;11.50;99.90;;;;;;4815385;29;20065;-84
2022/01/01 07:57:52;;;;;;;99.70;35.58;;;11.50;99.90;;;;;;4831393;29;20049;-84
2022/01/01 08:00:27;;;;;;;99.10;34.75;;;11.50;99.90;;;;;;4818809;29;22293;-84
2022/01/01 08:02:55;;;;;;;89.07;34.70;;;11.50;99.90;;;;;;4817742;29;20038;-84
2022/01/01 08:05:21;;;;;;;94.40;34.40;;;11.60;99.90;;;;;;4796126;29;20275;-85
2022/01/01 08:07:47;;;;;;;96.25;34.30;;;11.50;99.90;;;;;;4799538;29;20451;-84
2022/01/01 08:10:59;;;;;;;98.13;36.03;;;11.50;99.90;;;;;;4803879;29;20042;-83
2022/01/01 08:13:28;;;;;;;95.70;34.65;;;11.50;99.90;;;;;;4824068;29;20056;-85
2022/01/01 08:15:55;;;;;;;88.53;34.67;;;11.50;99.90;;;;;;4798824;29;20213;-84
2022/01/01 08:18:23;;;;;;;101.80;37.10;;;11.60;99.90;;;;;;4802113;29;20566;-84
2022/01/01 08:20:50;;;;;;;90.38;35.88;;;11.60;99.90;;;;;;4818198;29;20041;-86
2022/01/01 08:23:16;;;;;;;86.18;33.53;;;11.60;99.90;;;;;;4802832;29;20105;-83
2022/01/01 08:25:42;;;;;;;87.72;34.60;;;11.60;99.90;;;;;;4797762;29;20518;-85
2022/01/01 08:28:18;;;;;;;86.13;33.03;;;11.60;99.90;;;;;;4817438;29;20046;-86
2022/01/01 08:30:44;;;;;;;89.95;34.25;;;11.60;99.90;;;;;;4786463;29;20413;-85
2022/01/01 08:33:10;;;;;;;76.20;31.85;;;11.70;99.90;;;;;;4787942;29;20073;-87
2022/01/01 08:35:36;;;;;;;85.18;34.17;;;11.70;99.90;;;;;;4833089;29;20050;-86
2022/01/01 08:38:04;;;;;;;94.90;35.85;;;11.70;99.90;;;;;;4814557;29;20128;-86
2022/01/01 08:40:34;;;;;;;100.57;36.95;;;11.70;99.90;;;;;;4816024;29;20044;-86
2022/01/01 08:43:06;;;;;;;104.25;39.03;;;11.70;99.90;;;;;;4817566;29;20045;-86
2022/01/01 08:45:32;;;;;;;110.50;38.95;;;11.60;99.90;;;;;;4826831;29;20034;-84
2022/01/01 08:47:58;;;;;;;118.80;41.65;;;11.60;99.90;;;;;;4812717;29;20044;-85
2022/01/01 08:50:24;;;;;;;121.03;42.00;;;11.70;99.90;;;;;;4813190;29;21687;-85
2022/01/01 08:52:50;;;;;;;122.28;41.65;;;11.60;99.90;;;;;;4816131;29;20305;-85
2022/01/01 08:55:24;;;;;;;104.22;42.25;;;11.70;99.90;;;;;;4817466;29;20098;-86
2022/01/01 08:57:53;;;;;;;119.10;43.25;;;11.70;99.90;;;;;;4792832;29;20042;-86
2022/01/01 09:00:21;;;;;;;135.73;46.65;;;11.60;99.90;;;;;;4801901;29;20054;-84
2022/01/01 09:02:47;;;;;;;127.78;44.63;;;11.70;99.90;;;;;;4817006;29;20092;-84
2022/01/01 09:05:16;;;;;;;143.55;46.70;;;11.60;99.90;;;;;;4814195;29;20054;-84
2022/01/01 09:07:41;;;;;;;130.95;46.75;;;11.70;99.90;;;;;;4803638;29;20080;-84
2022/01/01 09:10:08;;;;;;;126.38;47.65;;;11.60;99.90;;;;;;4826768;29;20074;-85
2022/01/01 09:12:34;;;;;;;129.10;47.05;;;11.60;99.90;;;;;;4785621;29;20068;-86
2022/01/01 09:15:00;;;;;;;103.50;44.13;;;11.70;99.90;;;;;;4800228;29;20042;-83
2022/01/01 09:17:29;;;;;;;116.75;46.63;;;11.70;99.90;;;;;;4815453;29;20478;-83
2022/01/01 09:19:58;;;;;;;109.38;44.08;;;11.70;99.90;;;;;;4798087;29;20142;-86
2022/01/01 09:22:25;;;;;;;97.88;40.85;;;11.70;99.90;;;;;;4803215;29;20128;-85
2022/01/01 09:24:51;;;;;;;97.25;42.55;;;11.70;99.90;;;;;;4802328;29;20057;-87
2022/01/01 09:27:16;;;;;;;90.63;42.05;;;11.80;99.90;;;;;;4800956;29;20050;-84
2022/01/01 09:29:42;;;;;;;97.40;40.63;;;11.80;99.90;;;;;;4799097;29;20296;-85
2022/01/01 09:32:10;;;;;;;90.20;38.70;;;11.90;99.90;;;;;;4818510;29;20050;-83
2022/01/01 09:34:36;;;;;;;84.63;38.58;;;11.90;99.90;;;;;;4789360;29;20053;-85
2022/01/01 09:37:02;;;;;;;86.10;36.83;;;12.00;99.90;;;;;;4799576;29;20117;-85
2022/01/01 09:39:28;;;;;;;79.20;36.67;;;12.00;99.90;;;;;;4800792;29;20190;-86
2022/01/01 09:41:57;;;;;;;82.65;35.28;;;12.00;99.90;;;;;;4791210;29;20057;-84
2022/01/01 09:44:24;;;;;;;83.22;37.17;;;12.00;99.90;;;;;;4819887;29;20038;-86
2022/01/01 09:46:50;;;;;;;76.85;32.75;;;12.10;99.90;;;;;;4800351;29;20078;-85
2022/01/01 09:49:20;;;;;;;78.20;33.63;;;12.10;99.90;;;;;;4801107;29;20054;-84
2022/01/01 09:51:54;;;;;;;77.72;36.03;;;12.10;99.90;;;;;;4804755;29;20038;-83
2022/01/01 09:54:20;;;;;;;79.05;35.20;;;12.10;99.90;;;;;;4821726;29;20282;-83
2022/01/01 09:56:46;;;;;;;79.35;36.08;;;12.10;99.90;;;;;;4814242;29;20044;-84
2022/01/01 09:59:14;;;;;;;85.90;36.83;;;12.10;99.90;;;;;;4789984;29;20071;-84
2022/01/01 10:01:40;;;;;;;74.63;34.20;;;12.10;99.90;;;;;;4800258;29;20145;-85
2022/01/01 10:04:14;;;;;;;76.43;33.53;;;12.10;99.90;;;;;;4803492;29;20090;-84
2022/01/01 10:06:40;;;;;;;65.43;30.63;;;12.20;99.90;;;;;;4817112;29;20050;-86
2022/01/01 10:09:09;;;;;;;64.90;29.60;;;12.20;99.90;;;;;;4821858;29;20080;-85
2022/01/01 10:11:36;;;;;;;65.35;29.52;;;12.20;99.90;;;;;;4831546;29;20054;-84
2022/01/01 10:14:06;;;;;;;60.47;28.35;;;12.20;99.90;;;;;;4806125;29;20464;-85
2022/01/01 10:16:38;;;;;;;77.00;29.33;;;12.20;99.90;;;;;;4820576;29;20120;-85
2022/01/01 10:19:04;;;;;;;63.13;28.43;;;12.20;99.90;;;;;;4815015;29;20045;-84
2022/01/01 10:21:37;;;;;;;57.28;27.60;;;12.20;99.90;;;;;;4784455;29;20054;-85
2022/01/01 10:24:06;;;;;;;62.08;27.60;;;12.20;99.90;;;;;;4804494;29;20045;-85
2022/01/01 10:29:30;;;;;;;55.17;24.15;;;12.30;99.90;;;;;;4811553;29;20370;-85
2022/01/01 10:32:02;;;;;;;53.78;23.80;;;12.30;99.90;;;;;;4823867;29;20046;-84
2022/01/01 10:34:33;;;;;;;50.63;22.80;;;12.30;99.90;;;;;;4815329;29;20045;-83
2022/01/01 10:37:00;;;;;;;52.65;23.08;;;12.30;99.90;;;;;;4835159;29;20521;-86
2022/01/01 10:39:27;;;;;;;43.90;21.27;;;12.30;99.90;;;;;;4819641;29;20050;-85
2022/01/01 10:41:56;;;;;;;44.92;20.05;;;12.30;99.90;;;;;;4805679;29;20070;-84
2022/01/01 10:44:39;;;;;;;45.38;19.80;;;12.30;99.90;;;;;;4820981;29;20459;-85
2022/01/01 10:47:15;;;;;;;47.17;20.88;;;12.30;99.90;;;;;;4830368;29;20037;-84
2022/01/01 10:52:27;;;;;;;44.03;18.47;;;12.30;99.90;;;;;;4835213;29;20053;-83
2022/01/01 10:54:59;;;;;;;41.72;17.30;;;12.40;99.90;;;;;;4816802;29;20890;-86
2022/01/01 10:57:33;;;;;;;42.95;18.48;;;12.40;99.90;;;;;;4813019;29;20045;-84
2022/01/01 11:00:20;;;;;;;37.80;17.50;;;12.40;99.90;;;;;;4826036;29;20050;-83
2022/01/01 11:02:54;;;;;;;41.30;16.70;;;12.40;99.90;;;;;;4826014;29;20132;-83
2022/01/01 11:05:34;;;;;;;39.28;15.88;;;12.50;99.90;;;;;;4817594;29;20163;-85
2022/01/01 11:08:01;;;;;;;32.10;14.88;;;12.50;99.90;;;;;;4836598;29;20527;-86
2022/01/01 11:10:33;;;;;;;42.20;16.48;;;12.60;99.90;;;;;;4836526;24;20088;-84
2022/01/01 11:13:03;;;;;;;34.53;14.68;;;12.60;99.90;;;;;;4877341;29;20586;-85
2022/01/01 11:15:31;;;;;;;34.80;14.70;;;12.60;99.90;;;;;;4828570;29;20041;-84
2022/01/01 11:17:58;;;;;;;32.88;14.30;;;12.60;99.90;;;;;;4867539;29;20053;-83
2022/01/01 11:20:25;;;;;;;29.88;13.45;;;12.60;99.90;;;;;;4855283;29;20127;-84
2022/01/01 11:22:51;;;;;;;34.40;13.77;;;12.70;99.90;;;;;;4853082;29;20045;-84
2022/01/01 11:25:18;;;;;;;24.45;12.57;;;12.70;99.90;;;;;;4838152;29;20043;-84
2022/01/01 11:27:45;;;;;;;30.77;13.43;;;12.70;99.90;;;;;;4834667;29;20048;-84
2022/01/01 11:30:13;;;;;;;27.90;13.00;;;12.70;99.90;;;;;;4836526;29;20110;-85
2022/01/01 11:32:57;;;;;;;36.28;13.73;;;12.70;99.90;;;;;;4847250;29;20047;-85
2022/01/01 11:35:28;;;;;;;32.65;13.25;;;12.70;99.90;;;;;;4867781;29;20045;-85
2022/01/01 11:38:16;;;;;;;32.15;13.73;;;12.60;99.90;;;;;;4840770;29;20055;-84
2022/01/01 11:40:42;;;;;;;34.92;12.98;;;12.70;99.90;;;;;;4852973;29;20504;-84
2022/01/01 11:43:36;;;;;;;27.80;12.27;;;12.60;99.90;;;;;;4855673;29;20068;-85
2022/01/01 11:46:14;;;;;;;29.52;11.00;;;12.60;99.90;;;;;;4852561;29;20064;-84
2022/01/01 11:48:41;;;;;;;26.98;11.50;;;12.60;99.90;;;;;;4849454;29;20036;-85
2022/01/01 11:51:38;;;;;;;26.60;10.40;;;12.60;99.90;;;;;;4863376;29;20036;-84
2022/01/01 11:54:17;;;;;;;22.98;10.57;;;12.60;99.90;;;;;;4852372;29;20048;-84
2022/01/01 11:56:49;;;;;;;25.58;9.45;;;12.60;99.90;;;;;;4852045;29;20037;-86
2022/01/01 11:59:37;;;;;;;22.90;9.32;;;12.60;99.90;;;;;;4854419;29;20041;-85
2022/01/01 12:02:29;;;;;;;26.38;10.68;;;12.60;99.90;;;;;;4849981;29;20045;-86
2022/01/01 12:05:19;;;;;;;24.05;9.93;;;12.60;99.90;;;;;;4850409;29;20045;-83
2022/01/01 12:07:54;;;;;;;26.98;10.00;;;12.60;99.90;;;;;;4850900;29;20394;-85
2022/01/01 12:10:23;;;;;;;25.90;9.82;;;12.70;99.90;;;;;;4847658;29;20056;-84
2022/01/01 12:12:58;;;;;;;24.17;10.25;;;12.70;99.90;;;;;;4854185;29;20044;-84
2022/01/01 12:15:36;;;;;;;22.95;9.57;;;12.70;99.90;;;;;;4846194;29;20053;-84
2022/01/01 12:18:02;;;;;;;19.58;9.35;;;12.60;99.90;;;;;;4846002;29;20444;-83
2022/01/01 12:20:41;;;;;;;22.95;9.25;;;12.70;99.90;;;;;;4846462;29;20060;-84
2022/01/01 12:23:13;;;;;;;27.63;9.82;;;12.70;99.90;;;;;;4871607;29;20126;-84
2022/01/01 12:25:41;;;;;;;24.95;9.85;;;12.70;99.90;;;;;;4846323;29;20041;-83
2022/01/01 12:28:09;;;;;;;24.60;9.93;;;12.70;99.90;;;;;;4851079;29;20092;-85
2022/01/01 12:30:40;;;;;;;20.52;8.95;;;12.70;99.90;;;;;;4859387;29;20043;-85
2022/01/01 12:33:08;;;;;;;25.50;9.45;;;12.70;99.90;;;;;;4855206;29;20385;-86
2022/01/01 12:35:48;;;;;;;23.80;8.55;;;12.70;99.90;;;;;;4847506;29;20557;-86
2022/01/01 12:38:27;;;;;;;24.58;9.32;;;12.70;99.90;;;;;;4860233;29;20053;-86
2022/01/01 12:41:02;;;;;;;16.52;8.27;;;12.70;99.90;;;;;;4842728;29;20054;-88
2022/01/01 12:43:30;;;;;;;20.67;9.13;;;12.80;99.90;;;;;;4862456;29;20037;-86
2022/01/01 12:45:58;;;;;;;24.58;9.25;;;12.80;99.90;;;;;;4841370;29;20067;-87